createdAt,value
2024-01-16T00:00:11.220Z,6.30
2024-01-16T00:01:11.310Z,4.00
2024-01-16T00:02:11.224Z,5.60
2024-01-16T00:03:11.211Z,5.10
2024-01-16T00:04:11.279Z,6.90
2024-01-16T00:05:11.211Z,3.60
2024-01-16T00:06:11.155Z,5.50
2024-01-16T00:07:11.244Z,5.80
2024-01-16T00:08:11.159Z,4.10
2024-01-16T00:09:11.179Z,4.30
2024-01-16T00:10:11.156Z,8.60
2024-01-16T00:11:11.197Z,7.20
2024-01-16T00:12:11.100Z,5.00
2024-01-16T00:13:11.138Z,4.30
2024-01-16T00:14:11.129Z,7.80
2024-01-16T00:15:11.062Z,4.40
2024-01-16T00:16:11.049Z,5.90
2024-01-16T00:17:11.090Z,6.70
2024-01-16T00:18:11.318Z,5.40
2024-01-16T00:19:11.117Z,7.60
2024-01-16T00:20:11.100Z,5.30
2024-01-16T00:21:11.006Z,2.90
2024-01-16T00:22:10.977Z,5.50
2024-01-16T00:23:11.048Z,9.60
2024-01-16T00:24:10.982Z,5.10
2024-01-16T00:25:10.964Z,7.40
2024-01-16T00:26:10.945Z,5.70
2024-01-16T00:27:11.213Z,6.00
2024-01-16T00:28:10.915Z,4.50
2024-01-16T00:29:10.965Z,5.20
2024-01-16T00:30:10.915Z,5.90
2024-01-16T00:31:10.892Z,6.50
2024-01-16T00:32:10.918Z,4.30
2024-01-16T00:33:10.975Z,5.70
2024-01-16T00:34:10.859Z,6.30
2024-01-16T00:35:10.971Z,12.00
2024-01-16T00:36:10.873Z,6.40
2024-01-16T00:37:10.837Z,5.60
2024-01-16T00:38:10.859Z,7.20
2024-01-16T00:39:10.818Z,5.90
2024-01-16T00:40:10.799Z,4.70
2024-01-16T00:41:10.913Z,5.60
2024-01-16T00:42:10.791Z,7.90
2024-01-16T00:43:10.777Z,4.90
2024-01-16T00:44:10.809Z,4.20
2024-01-16T00:45:10.770Z,5.40
2024-01-16T00:46:10.738Z,5.20
2024-01-16T00:47:10.846Z,6.10
2024-01-16T00:48:10.867Z,6.70
2024-01-16T00:49:10.832Z,5.60
2024-01-16T00:50:10.765Z,4.70
2024-01-16T00:51:10.692Z,16.80
2024-01-16T00:52:10.658Z,6.60
2024-01-16T00:53:10.713Z,5.80
2024-01-16T00:54:10.799Z,5.90
2024-01-16T00:55:10.668Z,6.30
2024-01-16T00:56:10.670Z,4.50
2024-01-16T00:57:10.642Z,9.60
2024-01-16T00:58:10.585Z,4.60
2024-01-16T00:59:10.730Z,5.20
2024-01-16T01:00:10.644Z,4.80
2024-01-16T01:01:10.587Z,5.80
2024-01-16T01:02:10.645Z,4.60
2024-01-16T01:03:10.655Z,6.90
2024-01-16T01:04:10.570Z,12.40
2024-01-16T01:05:10.666Z,6.90
2024-01-16T01:06:10.678Z,4.30
2024-01-16T01:07:10.521Z,5.30
2024-01-16T01:08:10.573Z,8.70
2024-01-16T01:09:10.495Z,7.80
2024-01-16T01:10:10.583Z,5.60
2024-01-16T01:11:10.502Z,5.00
2024-01-16T01:12:10.439Z,5.90
2024-01-16T01:13:10.487Z,5.40
2024-01-16T01:14:10.497Z,4.70
2024-01-16T01:15:10.505Z,5.90
2024-01-16T01:16:10.412Z,5.90
2024-01-16T01:17:10.441Z,7.40
2024-01-16T01:18:10.739Z,6.90
2024-01-16T01:19:10.412Z,8.60
2024-01-16T01:20:10.402Z,6.60
2024-01-16T01:21:10.364Z,8.10
2024-01-16T01:22:10.416Z,9.50
2024-01-16T01:23:10.428Z,7.20
2024-01-16T01:24:10.306Z,8.90
2024-01-16T01:25:10.336Z,7.60
2024-01-16T01:26:10.298Z,7.80
2024-01-16T01:27:10.301Z,4.10
2024-01-16T01:28:10.287Z,7.10
2024-01-16T01:29:10.298Z,5.70
2024-01-16T01:30:10.275Z,5.30
2024-01-16T01:31:12.842Z,6.20
2024-01-16T01:32:10.265Z,6.30
2024-01-16T01:33:10.452Z,6.60
2024-01-16T01:34:10.356Z,7.30
2024-01-16T01:35:10.276Z,4.80
2024-01-16T01:36:10.175Z,7.50
2024-01-16T01:37:10.219Z,7.70
2024-01-16T01:38:10.250Z,5.00
2024-01-16T01:39:10.151Z,10.00
2024-01-16T01:40:10.184Z,8.30
2024-01-16T01:41:10.138Z,5.80
2024-01-16T01:42:10.105Z,7.10
2024-01-16T01:43:10.112Z,6.40
2024-01-16T01:44:10.117Z,4.40
2024-01-16T01:45:10.098Z,7.10
2024-01-16T01:46:10.092Z,6.40
2024-01-16T01:47:10.129Z,6.20
2024-01-16T01:48:10.287Z,8.50
2024-01-16T01:49:10.111Z,6.80
2024-01-16T01:50:10.039Z,5.20
2024-01-16T01:51:10.042Z,6.30
2024-01-16T01:52:10.020Z,6.00
2024-01-16T01:53:10.104Z,7.80
2024-01-16T01:54:09.984Z,5.80
2024-01-16T01:55:09.969Z,7.70
2024-01-16T01:56:10.000Z,4.80
2024-01-16T01:57:10.001Z,5.50
2024-01-16T01:58:09.949Z,7.30
2024-01-16T01:59:09.933Z,5.50
2024-01-16T02:00:09.933Z,5.40
2024-01-16T02:01:09.931Z,4.70
2024-01-16T02:02:09.918Z,4.90
2024-01-16T02:03:09.970Z,5.80
2024-01-16T02:04:09.871Z,5.60
2024-01-16T02:05:09.991Z,6.10
2024-01-16T02:06:09.988Z,6.90
2024-01-16T02:07:09.821Z,6.00
2024-01-16T02:08:09.877Z,4.70
2024-01-16T02:09:09.835Z,5.00
2024-01-16T02:10:09.802Z,5.20
2024-01-16T02:11:09.837Z,6.50
2024-01-16T02:12:09.792Z,4.90
2024-01-16T02:13:09.775Z,5.10
2024-01-16T02:14:09.807Z,6.90
2024-01-16T02:15:09.804Z,8.60
2024-01-16T02:16:09.738Z,4.80
2024-01-16T02:17:09.751Z,4.90
2024-01-16T02:18:09.834Z,6.60
2024-01-16T02:19:09.796Z,6.00
2024-01-16T02:20:09.801Z,5.60
2024-01-16T02:21:09.710Z,6.60
2024-01-16T02:22:09.676Z,6.60
2024-01-16T02:23:09.678Z,8.10
2024-01-16T02:24:09.648Z,7.40
2024-01-16T02:25:09.635Z,5.70
2024-01-16T02:26:09.694Z,5.10
2024-01-16T02:27:09.652Z,6.20
2024-01-16T02:28:09.612Z,6.40
2024-01-16T02:29:09.601Z,5.50
2024-01-16T02:30:09.627Z,7.00
2024-01-16T02:31:09.566Z,7.80
2024-01-16T02:32:09.615Z,6.40
2024-01-16T02:33:09.855Z,5.90
2024-01-16T02:34:09.618Z,5.70
2024-01-16T02:35:09.527Z,11.60
2024-01-16T02:36:09.522Z,5.80
2024-01-16T02:37:09.600Z,7.90
2024-01-16T02:38:09.553Z,6.30
2024-01-16T02:39:09.526Z,4.80
2024-01-16T02:40:09.506Z,5.70
2024-01-16T02:41:09.466Z,5.30
2024-01-16T02:42:09.458Z,7.60
2024-01-16T02:43:09.454Z,6.30
2024-01-16T02:44:09.492Z,5.00
2024-01-16T02:45:09.458Z,8.40
2024-01-16T02:46:09.439Z,5.60
2024-01-16T02:47:09.429Z,12.00
2024-01-16T02:48:09.492Z,6.30
2024-01-16T02:49:09.422Z,8.40
2024-01-16T02:50:09.394Z,5.40
2024-01-16T02:51:09.397Z,5.60
2024-01-16T02:52:09.382Z,4.70
2024-01-16T02:53:09.396Z,5.60
2024-01-16T02:54:09.335Z,7.50
2024-01-16T02:55:09.327Z,7.20
2024-01-16T02:56:09.516Z,4.90
2024-01-16T02:57:09.343Z,7.10
2024-01-16T02:58:09.319Z,6.80
2024-01-16T02:59:09.313Z,7.10
2024-01-16T03:00:09.293Z,6.80
2024-01-16T03:01:09.308Z,5.10
2024-01-16T03:02:09.284Z,5.40
2024-01-16T03:03:09.379Z,5.20
2024-01-16T03:04:09.242Z,4.80
2024-01-16T03:05:09.398Z,6.50
2024-01-16T03:06:09.381Z,5.30
2024-01-16T03:07:09.208Z,9.60
2024-01-16T03:08:09.232Z,6.00
2024-01-16T03:09:09.199Z,4.20
2024-01-16T03:10:09.189Z,6.50
2024-01-16T03:11:09.167Z,8.90
2024-01-16T03:12:09.189Z,8.80
2024-01-16T03:13:09.136Z,6.20
2024-01-16T03:14:09.180Z,10.80
2024-01-16T03:15:09.149Z,5.40
2024-01-16T03:16:09.104Z,4.20
2024-01-16T03:17:09.192Z,4.90
2024-01-16T03:18:09.308Z,3.70
2024-01-16T03:19:09.197Z,7.80
2024-01-16T03:20:09.107Z,6.20
2024-01-16T03:21:09.084Z,6.50
2024-01-16T03:22:09.051Z,6.70
2024-01-16T03:23:09.083Z,5.70
2024-01-16T03:24:09.048Z,6.70
2024-01-16T03:25:09.003Z,7.60
2024-01-16T03:26:09.077Z,7.30
2024-01-16T03:27:09.049Z,7.20
2024-01-16T03:28:09.124Z,6.50
2024-01-16T03:29:08.994Z,7.40
2024-01-16T03:30:09.133Z,5.40
2024-01-16T03:31:08.992Z,6.00
2024-01-16T03:32:08.987Z,3.70
2024-01-16T03:33:09.037Z,5.40
2024-01-16T03:34:08.964Z,5.30
2024-01-16T03:35:09.101Z,6.30
2024-01-16T03:36:08.908Z,5.20
2024-01-16T03:37:08.901Z,6.00
2024-01-16T03:38:08.905Z,5.50
2024-01-16T03:39:08.887Z,6.40
2024-01-16T03:40:08.864Z,6.80
2024-01-16T03:41:08.881Z,5.80
2024-01-16T03:42:08.840Z,6.90
2024-01-16T03:43:08.810Z,9.00
2024-01-16T03:44:08.853Z,7.80
2024-01-16T03:45:08.837Z,6.30
2024-01-16T03:46:08.843Z,6.00
2024-01-16T03:47:08.828Z,4.70
2024-01-16T03:48:08.960Z,8.60
2024-01-16T03:49:08.882Z,5.40
2024-01-16T03:50:08.787Z,5.80
2024-01-16T03:51:08.751Z,8.90
2024-01-16T03:52:08.749Z,4.90
2024-01-16T03:53:08.790Z,7.50
2024-01-16T03:54:08.709Z,5.80
2024-01-16T03:55:08.694Z,6.20
2024-01-16T03:56:08.722Z,6.00
2024-01-16T03:57:08.705Z,5.20
2024-01-16T03:58:11.803Z,5.30
2024-01-16T03:59:08.666Z,6.30
2024-01-16T04:00:08.625Z,9.20
2024-01-16T04:01:08.625Z,10.10
2024-01-16T04:02:08.646Z,7.30
2024-01-16T04:03:08.643Z,7.50
2024-01-16T04:04:08.805Z,8.20
2024-01-16T04:05:08.625Z,6.40
2024-01-16T04:06:08.725Z,4.90
2024-01-16T04:07:08.541Z,9.50
2024-01-16T04:08:08.685Z,4.10
2024-01-16T04:09:08.551Z,5.60
2024-01-16T04:10:08.528Z,7.30
2024-01-16T04:11:08.523Z,9.80
2024-01-16T04:12:08.515Z,9.60
2024-01-16T04:13:08.586Z,5.90
2024-01-16T04:14:08.523Z,7.70
2024-01-16T04:15:08.491Z,8.70
2024-01-16T04:16:08.480Z,8.90
2024-01-16T04:17:08.454Z,7.40
2024-01-16T04:18:08.730Z,6.60
2024-01-16T04:19:08.551Z,5.30
2024-01-16T04:20:08.609Z,5.70
2024-01-16T04:21:08.438Z,5.10
2024-01-16T04:22:08.401Z,7.30
2024-01-16T04:23:08.481Z,7.10
2024-01-16T04:24:08.404Z,6.30
2024-01-16T04:25:08.441Z,9.10
2024-01-16T04:26:08.367Z,5.50
2024-01-16T04:27:08.368Z,8.30
2024-01-16T04:28:08.328Z,8.50
2024-01-16T04:29:08.329Z,8.50
2024-01-16T04:30:08.359Z,6.70
2024-01-16T04:31:08.366Z,7.90
2024-01-16T04:32:08.397Z,9.40
2024-01-16T04:33:08.475Z,6.50
2024-01-16T04:34:08.351Z,7.10
2024-01-16T04:35:08.281Z,6.20
2024-01-16T04:36:08.294Z,5.80
2024-01-16T04:37:08.238Z,8.10
2024-01-16T04:38:08.321Z,11.50
2024-01-16T04:39:08.245Z,5.50
2024-01-16T04:40:08.210Z,7.10
2024-01-16T04:41:08.240Z,6.90
2024-01-16T04:42:08.180Z,7.60
2024-01-16T04:43:08.173Z,5.70
2024-01-16T04:44:08.186Z,5.80
2024-01-16T04:45:08.184Z,8.20
2024-01-16T04:46:08.143Z,6.10
2024-01-16T04:47:08.141Z,7.30
2024-01-16T04:48:08.275Z,6.00
2024-01-16T04:49:08.129Z,6.20
2024-01-16T04:50:08.111Z,6.40
2024-01-16T04:51:08.109Z,6.50
2024-01-16T04:52:08.092Z,5.70
2024-01-16T04:53:08.076Z,7.10
2024-01-16T04:54:08.058Z,7.40
2024-01-16T04:55:08.028Z,6.80
2024-01-16T04:56:08.081Z,9.10
2024-01-16T04:57:08.048Z,7.60
2024-01-16T04:58:08.013Z,5.80
2024-01-16T04:59:08.067Z,5.30
2024-01-16T05:00:08.102Z,7.60
2024-01-16T05:01:08.018Z,7.00
2024-01-16T05:02:08.036Z,6.50
2024-01-16T05:03:07.984Z,10.20
2024-01-16T05:04:08.008Z,5.60
2024-01-16T05:05:08.046Z,6.70
2024-01-16T05:06:08.896Z,8.30
2024-01-16T05:07:07.897Z,6.40
2024-01-16T05:08:08.028Z,7.60
2024-01-16T05:09:08.007Z,6.30
2024-01-16T05:10:07.868Z,5.60
2024-01-16T05:11:08.018Z,9.10
2024-01-16T05:12:07.856Z,5.40
2024-01-16T05:13:07.831Z,6.60
2024-01-16T05:14:07.919Z,7.90
2024-01-16T05:15:07.855Z,10.20
2024-01-16T05:16:07.840Z,4.80
2024-01-16T05:17:07.975Z,8.00
2024-01-16T05:18:07.977Z,8.30
2024-01-16T05:19:07.949Z,9.20
2024-01-16T05:20:07.817Z,5.60
2024-01-16T05:21:07.862Z,7.00
2024-01-16T05:22:07.790Z,5.70
2024-01-16T05:23:07.794Z,6.70
2024-01-16T05:24:07.753Z,6.80
2024-01-16T05:25:07.716Z,4.20
2024-01-16T05:26:07.723Z,7.60
2024-01-16T05:27:07.730Z,8.60
2024-01-16T05:28:07.680Z,7.00
2024-01-16T05:29:07.724Z,7.80
2024-01-16T05:30:07.730Z,6.10
2024-01-16T05:31:07.700Z,10.90
2024-01-16T05:32:07.697Z,7.00
2024-01-16T05:33:07.801Z,8.10
2024-01-16T05:34:07.741Z,4.40
2024-01-16T05:35:07.720Z,15.30
2024-01-16T05:36:07.677Z,8.00
2024-01-16T05:37:07.596Z,6.20
2024-01-16T05:38:07.597Z,5.50
2024-01-16T05:39:07.575Z,5.30
2024-01-16T05:40:07.584Z,7.60
2024-01-16T05:41:07.632Z,8.90
2024-01-16T05:42:07.561Z,7.70
2024-01-16T05:43:07.517Z,7.50
2024-01-16T05:44:07.643Z,8.10
2024-01-16T05:45:07.524Z,7.10
2024-01-16T05:46:07.918Z,6.80
2024-01-16T05:47:07.503Z,8.00
2024-01-16T05:48:07.624Z,5.90
2024-01-16T05:49:07.514Z,6.90
2024-01-16T05:50:07.567Z,4.60
2024-01-16T05:51:07.526Z,5.80
2024-01-16T05:52:07.424Z,5.50
2024-01-16T05:53:07.440Z,5.70
2024-01-16T05:54:07.400Z,4.60
2024-01-16T05:55:07.464Z,5.80
2024-01-16T05:56:07.408Z,5.10
2024-01-16T05:57:07.371Z,5.40
2024-01-16T05:58:07.366Z,4.60
2024-01-16T05:59:07.358Z,5.70
2024-01-16T06:00:07.329Z,4.30
2024-01-16T06:01:07.413Z,5.40
2024-01-16T06:02:07.376Z,9.10
2024-01-16T06:03:07.309Z,6.10
2024-01-16T06:04:07.358Z,5.30
2024-01-16T06:05:07.302Z,6.10
2024-01-16T06:06:07.346Z,6.00
2024-01-16T06:07:07.256Z,8.90
2024-01-16T06:08:07.300Z,4.50
2024-01-16T06:09:07.258Z,5.60
2024-01-16T06:10:07.929Z,6.40
2024-01-16T06:11:07.288Z,4.50
2024-01-16T06:12:07.213Z,7.70
2024-01-16T06:13:07.186Z,7.70
2024-01-16T06:14:07.225Z,8.20
2024-01-16T06:15:07.230Z,6.30
2024-01-16T06:16:07.145Z,7.50
2024-01-16T06:17:07.248Z,7.60
2024-01-16T06:18:07.395Z,7.30
2024-01-16T06:19:07.232Z,3.40
2024-01-16T06:20:07.133Z,7.70
2024-01-16T06:21:07.147Z,6.00
2024-01-16T06:22:07.085Z,7.90
2024-01-16T06:23:07.159Z,6.30
2024-01-16T06:24:07.051Z,5.80
2024-01-16T06:25:07.085Z,9.70
2024-01-16T06:26:07.082Z,7.60
2024-01-16T06:27:07.061Z,7.50
2024-01-16T06:28:07.017Z,7.10
2024-01-16T06:29:09.615Z,9.10
2024-01-16T06:30:07.060Z,9.10
2024-01-16T06:31:07.019Z,8.40
2024-01-16T06:32:07.095Z,6.70
2024-01-16T06:33:07.142Z,6.60
2024-01-16T06:34:07.016Z,9.30
2024-01-16T06:35:07.280Z,7.60
2024-01-16T06:36:07.012Z,6.00
2024-01-16T06:37:06.937Z,7.10
2024-01-16T06:38:06.901Z,11.50
2024-01-16T06:39:06.953Z,6.20
2024-01-16T06:40:06.915Z,5.80
2024-01-16T06:41:06.918Z,8.30
2024-01-16T06:42:10.699Z,7.50
2024-01-16T06:43:06.873Z,8.20
2024-01-16T06:44:07.021Z,7.10
2024-01-16T06:45:06.832Z,7.70
2024-01-16T06:46:06.816Z,5.10
2024-01-16T06:47:06.841Z,6.90
2024-01-16T06:48:06.928Z,6.60
2024-01-16T06:49:06.902Z,7.20
2024-01-16T06:50:06.793Z,8.90
2024-01-16T06:51:06.831Z,5.80
2024-01-16T06:52:06.759Z,5.80
2024-01-16T06:53:06.789Z,9.10
2024-01-16T06:54:06.722Z,8.20
2024-01-16T06:55:06.751Z,7.20
2024-01-16T06:56:06.701Z,7.40
2024-01-16T06:57:06.734Z,10.00
2024-01-16T06:58:06.694Z,8.50
2024-01-16T06:59:09.464Z,6.10
2024-01-16T07:00:06.634Z,9.60
2024-01-16T07:01:06.655Z,7.70
2024-01-16T07:02:06.603Z,9.60
2024-01-16T07:03:06.610Z,10.40
2024-01-16T07:04:06.579Z,7.20
2024-01-16T07:05:06.609Z,9.10
2024-01-16T07:06:06.749Z,7.90
2024-01-16T07:07:06.544Z,9.80
2024-01-16T07:08:06.536Z,8.10
2024-01-16T07:09:06.774Z,5.20
2024-01-16T07:10:06.487Z,9.70
2024-01-16T07:11:06.483Z,9.90
2024-01-16T07:12:06.482Z,8.90
2024-01-16T07:13:06.470Z,6.10
2024-01-16T07:14:06.481Z,7.00
2024-01-16T07:15:06.442Z,7.30
2024-01-16T07:16:06.481Z,11.10
2024-01-16T07:17:06.415Z,10.90
2024-01-16T07:18:06.470Z,9.90
2024-01-16T07:19:06.505Z,9.00
2024-01-16T07:20:06.508Z,8.40
2024-01-16T07:21:06.371Z,8.60
2024-01-16T07:22:06.351Z,8.50
2024-01-16T07:23:06.357Z,8.70
2024-01-16T07:24:06.324Z,8.40
2024-01-16T07:25:06.341Z,9.60
2024-01-16T07:26:06.377Z,10.70
2024-01-16T07:27:06.319Z,9.30
2024-01-16T07:28:06.302Z,12.20
2024-01-16T07:29:06.283Z,9.30
2024-01-16T07:30:06.341Z,8.80
2024-01-16T07:31:06.324Z,13.80
2024-01-16T07:32:12.436Z,8.60
2024-01-16T07:33:06.417Z,9.10
2024-01-16T07:34:06.293Z,6.90
2024-01-16T07:35:06.217Z,8.30
2024-01-16T07:36:06.199Z,9.10
2024-01-16T07:37:06.207Z,10.20
2024-01-16T07:38:06.207Z,9.40
2024-01-16T07:39:06.202Z,8.30
2024-01-16T07:40:06.153Z,12.60
2024-01-16T07:41:06.149Z,11.60
2024-01-16T07:42:06.135Z,9.70
2024-01-16T07:43:06.183Z,10.40
2024-01-16T07:44:06.118Z,8.90
2024-01-16T07:45:06.143Z,12.20
2024-01-16T07:46:06.120Z,10.60
2024-01-16T07:47:06.091Z,10.90
2024-01-16T07:48:06.268Z,11.10
2024-01-16T07:49:06.250Z,8.00
2024-01-16T07:50:08.488Z,10.00
2024-01-16T07:51:06.050Z,9.50
2024-01-16T07:52:06.026Z,10.80
2024-01-16T07:53:06.023Z,13.60
2024-01-16T07:54:06.032Z,8.90
2024-01-16T07:55:06.031Z,13.00
2024-01-16T07:56:05.981Z,10.10
2024-01-16T07:57:05.976Z,10.90
2024-01-16T07:58:05.968Z,10.40
2024-01-16T07:59:05.955Z,9.10
2024-01-16T08:00:05.922Z,10.90
2024-01-16T08:01:06.003Z,11.30
2024-01-16T08:02:05.896Z,12.50
2024-01-16T08:03:05.997Z,9.80
2024-01-16T08:04:06.056Z,13.80
2024-01-16T08:05:05.914Z,13.20
2024-01-16T08:06:06.004Z,11.30
2024-01-16T08:07:05.910Z,10.20
2024-01-16T08:08:05.855Z,10.40
2024-01-16T08:09:05.936Z,14.80
2024-01-16T08:10:05.811Z,11.80
2024-01-16T08:11:05.851Z,9.50
2024-01-16T08:12:05.826Z,12.90
2024-01-16T08:13:05.876Z,11.90
2024-01-16T08:14:05.789Z,12.70
2024-01-16T08:15:05.805Z,13.20
2024-01-16T08:16:06.376Z,12.30
2024-01-16T08:17:05.781Z,10.30
2024-01-16T08:18:05.999Z,8.60
2024-01-16T08:19:05.992Z,11.00
2024-01-16T08:20:05.740Z,12.00
2024-01-16T08:21:05.753Z,10.90
2024-01-16T08:22:08.068Z,11.30
2024-01-16T08:23:05.721Z,11.10
2024-01-16T08:24:05.714Z,9.80
2024-01-16T08:25:05.733Z,9.40
2024-01-16T08:26:05.687Z,9.30
2024-01-16T08:27:05.701Z,8.20
2024-01-16T08:28:05.663Z,10.70
2024-01-16T08:29:05.658Z,12.20
2024-01-16T08:30:05.673Z,9.20
2024-01-16T08:31:05.777Z,9.70
2024-01-16T08:32:05.617Z,9.60
2024-01-16T08:33:05.792Z,9.30
2024-01-16T08:34:05.710Z,10.70
2024-01-16T08:35:05.627Z,10.50
2024-01-16T08:36:05.615Z,9.20
2024-01-16T08:37:05.612Z,9.80
2024-01-16T08:38:05.538Z,10.20
2024-01-16T08:39:05.548Z,9.50
2024-01-16T08:40:05.787Z,11.20
2024-01-16T08:41:05.537Z,10.90
2024-01-16T08:42:05.529Z,10.10
2024-01-16T08:43:05.546Z,13.90
2024-01-16T08:44:05.470Z,12.60
2024-01-16T08:45:05.492Z,12.10
2024-01-16T08:46:05.488Z,11.40
2024-01-16T08:47:05.459Z,9.40
2024-01-16T08:48:05.680Z,9.90
2024-01-16T08:49:05.564Z,12.80
2024-01-16T08:50:05.427Z,9.50
2024-01-16T08:51:05.432Z,8.50
2024-01-16T08:52:05.400Z,10.10
2024-01-16T08:53:05.394Z,9.00
2024-01-16T08:54:05.385Z,10.50
2024-01-16T08:55:05.407Z,9.90
2024-01-16T08:56:05.342Z,11.30
2024-01-16T08:57:05.351Z,10.00
2024-01-16T08:58:05.313Z,10.30
2024-01-16T08:59:05.374Z,10.90
2024-01-16T09:00:05.304Z,10.30
2024-01-16T09:01:05.359Z,8.70
2024-01-16T09:02:05.300Z,11.30
2024-01-16T09:03:05.686Z,10.70
2024-01-16T09:04:05.285Z,13.10
2024-01-16T09:05:05.304Z,11.00
2024-01-16T09:06:05.556Z,10.80
2024-01-16T09:07:05.302Z,10.40
2024-01-16T09:08:05.223Z,14.90
2024-01-16T09:09:05.290Z,10.80
2024-01-16T09:10:05.200Z,14.30
2024-01-16T09:11:05.209Z,9.90
2024-01-16T09:12:05.224Z,10.80
2024-01-16T09:13:05.192Z,10.50
2024-01-16T09:14:05.205Z,12.70
2024-01-16T09:15:05.149Z,10.90
2024-01-16T09:16:05.144Z,12.20
2024-01-16T09:17:05.154Z,10.90
2024-01-16T09:18:05.356Z,11.70
2024-01-16T09:19:05.186Z,8.60
2024-01-16T09:20:05.100Z,10.30
2024-01-16T09:21:05.148Z,9.10
2024-01-16T09:22:05.066Z,11.30
2024-01-16T09:23:05.101Z,7.50
2024-01-16T09:24:05.030Z,10.40
2024-01-16T09:25:05.054Z,8.70
2024-01-16T09:26:05.034Z,11.60
2024-01-16T09:27:05.034Z,10.10
2024-01-16T09:28:05.039Z,10.10
2024-01-16T09:29:05.024Z,9.70
2024-01-16T09:30:05.009Z,11.10
2024-01-16T09:31:05.079Z,10.90
2024-01-16T09:32:04.990Z,8.30
2024-01-16T09:33:05.051Z,10.30
2024-01-16T09:34:09.211Z,12.20
2024-01-16T09:35:05.030Z,12.30
2024-01-16T09:36:04.917Z,9.30
2024-01-16T09:37:04.929Z,11.20
2024-01-16T09:38:04.949Z,9.10
2024-01-16T09:39:04.936Z,9.30
2024-01-16T09:40:04.865Z,9.70
2024-01-16T09:41:04.940Z,7.90
2024-01-16T09:42:04.846Z,11.20
2024-01-16T09:43:04.843Z,9.70
2024-01-16T09:44:04.831Z,10.60
2024-01-16T09:45:04.822Z,9.70
2024-01-16T09:46:04.830Z,11.20
2024-01-16T09:47:04.859Z,9.70
2024-01-16T09:48:04.956Z,9.00
2024-01-16T09:49:04.893Z,9.30
2024-01-16T09:50:04.763Z,9.90
2024-01-16T09:51:04.787Z,10.10
2024-01-16T09:52:04.761Z,10.30
2024-01-16T09:53:04.822Z,11.00
2024-01-16T09:54:04.721Z,9.50
2024-01-16T09:55:04.717Z,8.90
2024-01-16T09:56:04.716Z,9.70
2024-01-16T09:57:04.718Z,8.90
2024-01-16T09:58:04.722Z,9.00
2024-01-16T09:59:04.699Z,9.50
2024-01-16T10:00:04.737Z,8.70
2024-01-16T10:01:04.740Z,13.50
2024-01-16T10:02:04.660Z,10.20
2024-01-16T10:03:04.739Z,9.30
2024-01-16T10:04:04.705Z,10.40
2024-01-16T10:05:04.630Z,9.10
2024-01-16T10:06:04.715Z,8.60
2024-01-16T10:07:04.636Z,11.90
2024-01-16T10:08:04.576Z,9.80
2024-01-16T10:09:04.635Z,10.60
2024-01-16T10:10:04.571Z,8.10
2024-01-16T10:11:04.572Z,10.80
2024-01-16T10:12:04.542Z,10.50
2024-01-16T10:13:04.539Z,9.50
2024-01-16T10:14:04.575Z,11.30
2024-01-16T10:15:04.526Z,9.40
2024-01-16T10:16:04.501Z,8.50
2024-01-16T10:17:04.510Z,9.30
2024-01-16T10:18:04.628Z,13.20
2024-01-16T10:19:04.634Z,9.20
2024-01-16T10:20:04.621Z,8.70
2024-01-16T10:21:04.526Z,9.80
2024-01-16T10:22:04.453Z,11.10
2024-01-16T10:23:04.447Z,9.00
2024-01-16T10:24:04.498Z,8.80
2024-01-16T10:25:04.419Z,10.20
2024-01-16T10:26:04.394Z,8.20
2024-01-16T10:27:04.478Z,10.00
2024-01-16T10:28:04.425Z,10.10
2024-01-16T10:29:04.356Z,10.00
2024-01-16T10:30:04.575Z,9.40
2024-01-16T10:31:04.677Z,9.70
2024-01-16T10:32:04.429Z,10.10
2024-01-16T10:33:04.530Z,9.50
2024-01-16T10:34:04.516Z,15.10
2024-01-16T10:35:04.351Z,10.40
2024-01-16T10:36:04.317Z,11.90
2024-01-16T10:37:04.490Z,11.30
2024-01-16T10:38:04.320Z,11.30
2024-01-16T10:39:04.249Z,11.10
2024-01-16T10:40:04.250Z,9.90
2024-01-16T10:41:04.230Z,10.00
2024-01-16T10:42:04.233Z,10.90
2024-01-16T10:43:04.214Z,10.80
2024-01-16T10:44:04.228Z,9.90
2024-01-16T10:45:04.198Z,11.30
2024-01-16T10:46:04.201Z,9.90
2024-01-16T10:47:04.180Z,11.40
2024-01-16T10:48:04.990Z,10.80
2024-01-16T10:49:04.459Z,9.40
2024-01-16T10:50:04.198Z,10.60
2024-01-16T10:51:04.141Z,11.40
2024-01-16T10:52:04.131Z,10.50
2024-01-16T10:53:04.126Z,11.40
2024-01-16T10:54:04.108Z,10.30
2024-01-16T10:55:04.104Z,13.10
2024-01-16T10:56:04.084Z,11.10
2024-01-16T10:57:04.058Z,10.10
2024-01-16T10:58:04.072Z,13.50
2024-01-16T10:59:04.038Z,12.60
2024-01-16T11:00:04.097Z,11.60
2024-01-16T11:01:04.115Z,10.60
2024-01-16T11:02:04.017Z,11.30
2024-01-16T11:03:04.024Z,10.80
2024-01-16T11:04:04.067Z,10.10
2024-01-16T11:05:03.989Z,12.80
2024-01-16T11:06:04.098Z,10.70
2024-01-16T11:07:03.956Z,12.50
2024-01-16T11:08:03.950Z,10.30
2024-01-16T11:09:06.849Z,12.30
2024-01-16T11:10:03.968Z,9.80
2024-01-16T11:11:03.911Z,12.40
2024-01-16T11:12:03.951Z,10.50
2024-01-16T11:13:03.920Z,13.80
2024-01-16T11:14:03.909Z,10.80
2024-01-16T11:15:03.896Z,10.60
2024-01-16T11:16:03.921Z,10.90
2024-01-16T11:17:03.846Z,13.20
2024-01-16T11:18:04.184Z,11.50
2024-01-16T11:19:18.701Z,11.70
2024-01-16T11:20:14.401Z,13.50
2024-01-16T11:21:07.800Z,10.70
2024-01-16T11:22:04.016Z,11.70
2024-01-16T11:23:03.790Z,12.40
2024-01-16T11:24:03.878Z,11.90
2024-01-16T11:25:03.761Z,12.40
2024-01-16T11:26:03.766Z,10.10
2024-01-16T11:27:03.803Z,11.60
2024-01-16T11:28:03.736Z,10.30
2024-01-16T11:29:03.739Z,10.60
2024-01-16T11:30:03.861Z,9.60
2024-01-16T11:31:03.819Z,12.10
2024-01-16T11:32:13.989Z,10.60
2024-01-16T11:33:03.832Z,11.60
2024-01-16T11:34:04.519Z,9.00
2024-01-16T11:35:03.751Z,10.30
2024-01-16T11:36:03.806Z,9.40
2024-01-16T11:37:03.652Z,10.50
2024-01-16T11:38:03.630Z,9.60
2024-01-16T11:39:03.713Z,10.50
2024-01-16T11:40:03.626Z,10.80
2024-01-16T11:41:03.606Z,10.00
2024-01-16T11:42:03.724Z,10.10
2024-01-16T11:43:03.565Z,10.70
2024-01-16T11:44:03.581Z,12.50
2024-01-16T11:45:03.613Z,13.10
2024-01-16T11:46:03.559Z,11.00
2024-01-16T11:47:03.564Z,11.30
2024-01-16T11:48:03.686Z,10.60
2024-01-16T11:49:03.694Z,13.40
2024-01-16T11:50:03.524Z,8.40
2024-01-16T11:51:03.589Z,10.60
2024-01-16T11:52:03.511Z,10.00
2024-01-16T11:53:03.464Z,10.30
2024-01-16T11:54:03.571Z,9.90
2024-01-16T11:55:03.462Z,10.80
2024-01-16T11:56:03.447Z,9.90
2024-01-16T11:57:03.457Z,9.80
2024-01-16T11:58:03.426Z,9.60
2024-01-16T11:59:03.396Z,9.30
2024-01-16T12:00:03.560Z,9.00
2024-01-16T12:01:03.438Z,9.20
2024-01-16T12:02:05.741Z,8.30
2024-01-16T12:03:03.404Z,7.80
2024-01-16T12:04:03.399Z,9.50
2024-01-16T12:05:03.369Z,6.30
2024-01-16T12:06:04.517Z,7.90
2024-01-16T12:07:03.575Z,7.10
2024-01-16T12:08:03.318Z,11.30
2024-01-16T12:09:03.366Z,9.50
2024-01-16T12:10:03.307Z,9.10
2024-01-16T12:11:03.284Z,9.40
2024-01-16T12:12:03.460Z,10.00
2024-01-16T12:13:05.475Z,8.00
2024-01-16T12:14:03.250Z,10.60
2024-01-16T12:15:03.289Z,7.30
2024-01-16T12:16:03.338Z,9.50
2024-01-16T12:17:03.218Z,8.90
2024-01-16T12:18:03.537Z,9.30
2024-01-16T12:19:03.298Z,6.30
2024-01-16T12:20:03.301Z,9.40
2024-01-16T12:21:03.199Z,9.60
2024-01-16T12:22:03.171Z,9.10
2024-01-16T12:23:03.189Z,6.60
2024-01-16T12:24:09.969Z,10.20
2024-01-16T12:25:03.139Z,7.60
2024-01-16T12:26:04.411Z,7.30
2024-01-16T12:27:03.103Z,6.80
2024-01-16T12:28:03.110Z,8.10
2024-01-16T12:29:03.112Z,8.90
2024-01-16T12:30:03.099Z,8.60
2024-01-16T12:31:03.232Z,8.00
2024-01-16T12:32:03.102Z,6.70
2024-01-16T12:33:08.103Z,8.70
2024-01-16T12:34:04.684Z,10.00
2024-01-16T12:35:03.206Z,8.10
2024-01-16T12:36:03.143Z,7.30
2024-01-16T12:37:03.055Z,9.30
2024-01-16T12:38:03.009Z,7.60
2024-01-16T12:39:02.991Z,10.20
2024-01-16T12:40:03.048Z,5.30
2024-01-16T12:41:03.586Z,8.90
2024-01-16T12:42:03.066Z,9.60
2024-01-16T12:43:02.947Z,11.30
2024-01-16T12:44:10.908Z,8.60
2024-01-16T12:45:03.094Z,8.90
2024-01-16T12:46:02.996Z,7.60
2024-01-16T12:47:03.170Z,6.40
2024-01-16T12:48:03.015Z,6.80
2024-01-16T12:50:02.928Z,7.10
2024-01-16T12:51:02.926Z,6.40
2024-01-16T12:52:02.865Z,4.80
2024-01-16T12:53:04.414Z,8.40
2024-01-16T12:54:02.910Z,7.90
2024-01-16T12:55:02.886Z,6.80
2024-01-16T12:56:02.835Z,6.30
2024-01-16T12:57:02.828Z,6.10
2024-01-16T12:58:02.797Z,6.20
2024-01-16T12:59:05.408Z,7.60
2024-01-16T13:00:02.781Z,9.40
2024-01-16T13:01:02.767Z,7.20
2024-01-16T13:02:02.783Z,5.50
2024-01-16T13:03:02.948Z,5.30
2024-01-16T13:04:02.784Z,7.70
2024-01-16T13:05:02.776Z,9.20
2024-01-16T13:06:02.886Z,9.60
2024-01-16T13:07:02.815Z,4.30
2024-01-16T13:08:02.704Z,6.10
2024-01-16T13:09:02.847Z,5.00
2024-01-16T13:10:02.718Z,5.90
2024-01-16T13:11:02.657Z,5.40
2024-01-16T13:12:02.689Z,7.50